Terminal Aerodrome Forecast
Issued by NWS

Home | Current Version | Previous Version | Text Only | Print | Product List | Glossary Off
Versions: 1 2 3 4 5 6 7 8 9 10 11 12 13 14 15 16 17 18 19 20 21 22 23 24 25 26 27 28 29 30 31 32 33 34 35

000
FTUS43 KLOT 280500
TAFDPA
TAF
KDPA 280539Z 2806/2906 16003KT P6SM SCT022 SCT250
      TEMPO 2806/2809 4SM BR
     FM281400 17009KT P6SM SCT250
     FM281800 16013G22KT P6SM BKN200
     FM290400 18014G21KT P6SM SCT030 BKN100=

USA.gov is the U.S. government's official web portal to all federal, state and local government web resources and services.